createdAt,value
2022-09-13T00:00:13.192Z,0.00
2022-09-13T00:01:14.370Z,0.00
2022-09-13T00:02:13.455Z,0.00
2022-09-13T00:03:15.034Z,0.00
2022-09-13T00:04:13.518Z,0.00
2022-09-13T00:05:14.607Z,0.00
2022-09-13T00:06:13.934Z,0.00
2022-09-13T00:07:13.002Z,0.00
2022-09-13T00:08:15.822Z,0.00
2022-09-13T00:09:13.851Z,0.00
2022-09-13T00:10:13.992Z,0.00
2022-09-13T00:11:13.184Z,0.00
2022-09-13T00:12:13.309Z,0.00
2022-09-13T00:13:13.713Z,0.00
2022-09-13T00:14:15.197Z,0.00
2022-09-13T00:15:13.381Z,0.00
2022-09-13T00:16:14.713Z,0.00
2022-09-13T00:17:14.499Z,0.00
2022-09-13T00:18:13.933Z,0.00
2022-09-13T00:19:14.575Z,0.00
2022-09-13T00:20:15.090Z,0.00
2022-09-13T00:21:13.120Z,0.00
2022-09-13T00:22:13.658Z,0.00
2022-09-13T00:23:14.935Z,0.00
2022-09-13T00:24:13.229Z,0.00
2022-09-13T00:25:13.128Z,0.00
2022-09-13T00:26:14.306Z,0.00
2022-09-13T00:27:13.256Z,0.00
2022-09-13T00:28:13.714Z,0.00
2022-09-13T00:29:14.228Z,0.00
2022-09-13T00:30:13.200Z,0.00
2022-09-13T00:31:13.406Z,0.00
2022-09-13T00:32:13.408Z,0.00
2022-09-13T00:33:13.580Z,0.00
2022-09-13T00:34:13.493Z,0.00
2022-09-13T00:35:15.215Z,0.00
2022-09-13T00:36:13.790Z,0.00
2022-09-13T00:37:13.662Z,0.00
2022-09-13T00:38:13.826Z,0.00
2022-09-13T00:39:13.175Z,0.00
2022-09-13T00:40:16.782Z,0.00
2022-09-13T00:41:13.901Z,0.00
2022-09-13T00:42:14.622Z,0.00
2022-09-13T00:43:13.885Z,0.00
2022-09-13T00:44:15.691Z,0.00
2022-09-13T00:45:15.392Z,0.00
2022-09-13T00:46:13.632Z,0.00
2022-09-13T00:47:13.684Z,0.00
2022-09-13T00:48:13.803Z,0.00
2022-09-13T00:49:16.915Z,0.00
2022-09-13T00:50:18.064Z,0.00
2022-09-13T00:51:13.214Z,0.00
2022-09-13T00:52:13.747Z,0.00
2022-09-13T00:53:13.940Z,0.00
2022-09-13T00:54:12.854Z,0.00
2022-09-13T00:55:15.494Z,0.00
2022-09-13T00:56:13.876Z,0.00
2022-09-13T00:57:13.853Z,0.00
2022-09-13T00:58:13.802Z,0.00
2022-09-13T00:59:14.016Z,0.00
2022-09-13T01:00:12.948Z,0.00
2022-09-13T01:01:13.107Z,0.00
2022-09-13T01:02:13.094Z,0.00
2022-09-13T01:03:13.120Z,0.00
2022-09-13T01:04:13.145Z,0.00
2022-09-13T01:05:13.103Z,0.00
2022-09-13T01:06:13.018Z,0.00
2022-09-13T01:07:14.413Z,0.00
2022-09-13T01:08:14.901Z,0.00
2022-09-13T01:09:13.260Z,0.00
2022-09-13T01:10:13.166Z,0.00
2022-09-13T01:11:13.054Z,0.00
2022-09-13T01:12:13.031Z,0.00
2022-09-13T01:13:13.006Z,0.00
2022-09-13T01:14:14.816Z,0.00
2022-09-13T01:15:16.994Z,0.00
2022-09-13T01:16:13.215Z,0.00
2022-09-13T01:17:13.400Z,0.00
2022-09-13T01:18:13.264Z,0.00
2022-09-13T01:19:13.378Z,0.00
2022-09-13T01:20:13.200Z,0.00
2022-09-13T01:21:13.159Z,0.00
2022-09-13T01:22:13.069Z,0.00
2022-09-13T01:23:12.977Z,0.00
2022-09-13T01:24:13.082Z,0.00
2022-09-13T01:25:13.028Z,0.00
2022-09-13T01:26:14.881Z,0.00
2022-09-13T01:27:14.357Z,0.00
2022-09-13T01:28:13.653Z,0.00
2022-09-13T01:29:13.574Z,0.00
2022-09-13T01:30:13.430Z,0.00
2022-09-13T01:31:14.946Z,0.00
2022-09-13T01:32:13.832Z,0.00
2022-09-13T01:33:13.965Z,0.00
2022-09-13T01:34:12.917Z,0.00
2022-09-13T01:35:13.216Z,0.00
2022-09-13T01:36:13.111Z,0.00
2022-09-13T01:37:13.050Z,0.00
2022-09-13T01:38:12.939Z,0.00
2022-09-13T01:39:12.966Z,0.00
2022-09-13T01:40:14.543Z,0.00
2022-09-13T01:41:13.544Z,0.00
2022-09-13T01:42:13.406Z,0.00
2022-09-13T01:43:13.386Z,0.00
2022-09-13T01:44:15.056Z,0.00
2022-09-13T01:45:14.728Z,0.00
2022-09-13T01:46:13.704Z,0.00
2022-09-13T01:47:13.952Z,0.00
2022-09-13T01:48:12.856Z,0.00
2022-09-13T01:49:14.238Z,0.00
2022-09-13T01:50:13.911Z,0.00
2022-09-13T01:51:13.659Z,0.00
2022-09-13T01:52:13.977Z,0.00
2022-09-13T01:53:13.094Z,0.00
2022-09-13T01:54:14.970Z,0.00
2022-09-13T01:55:13.286Z,0.00
2022-09-13T01:56:13.307Z,0.00
2022-09-13T01:57:14.540Z,0.00
2022-09-13T01:58:13.501Z,0.00
2022-09-13T01:59:15.501Z,0.00
2022-09-13T02:00:13.464Z,0.00
2022-09-13T02:01:13.606Z,0.00
2022-09-13T02:02:13.778Z,0.00
2022-09-13T02:03:13.920Z,0.00
2022-09-13T02:04:13.062Z,0.00
2022-09-13T02:05:13.960Z,0.00
2022-09-13T02:06:13.241Z,0.00
2022-09-13T02:07:15.085Z,0.00
2022-09-13T02:08:13.154Z,0.00
2022-09-13T02:09:13.522Z,0.00
2022-09-13T02:10:15.042Z,0.00
2022-09-13T02:11:15.196Z,0.00
2022-09-13T02:12:14.363Z,0.00
2022-09-13T02:13:13.420Z,0.00
2022-09-13T02:14:13.313Z,0.00
2022-09-13T02:15:14.582Z,0.00
2022-09-13T02:16:13.718Z,0.00
2022-09-13T02:17:13.783Z,0.00
2022-09-13T02:18:13.709Z,0.00
2022-09-13T02:19:13.793Z,0.00
2022-09-13T02:20:14.849Z,0.00
2022-09-13T02:21:15.439Z,0.00
2022-09-13T02:22:13.465Z,0.00
2022-09-13T02:23:13.457Z,0.00
2022-09-13T02:24:13.433Z,0.00
2022-09-13T02:25:14.523Z,0.00
2022-09-13T02:26:15.582Z,0.00
2022-09-13T02:27:13.587Z,0.00
2022-09-13T02:28:13.680Z,0.00
2022-09-13T02:29:13.719Z,0.00
2022-09-13T02:30:14.713Z,0.00
2022-09-13T02:31:14.195Z,0.00
2022-09-13T02:32:13.821Z,0.00
2022-09-13T02:33:13.811Z,0.00
2022-09-13T02:34:15.714Z,0.00
2022-09-13T02:35:15.638Z,0.00
2022-09-13T02:36:15.356Z,0.00
2022-09-13T02:37:13.436Z,0.00
2022-09-13T02:38:14.995Z,0.00
2022-09-13T02:39:13.037Z,0.00
2022-09-13T02:40:13.020Z,0.00
2022-09-13T02:41:13.308Z,0.00
2022-09-13T02:42:13.919Z,0.00
2022-09-13T02:43:13.066Z,0.00
2022-09-13T02:44:13.404Z,0.00
2022-09-13T02:45:13.781Z,0.00
2022-09-13T02:46:14.961Z,0.00
2022-09-13T02:47:14.497Z,0.00
2022-09-13T02:48:14.688Z,0.00
2022-09-13T02:49:17.649Z,0.00
2022-09-13T02:50:14.416Z,0.00
2022-09-13T02:51:13.280Z,0.00
2022-09-13T02:52:14.743Z,0.00
2022-09-13T02:53:15.823Z,0.00
2022-09-13T02:54:14.055Z,0.00
2022-09-13T02:55:15.852Z,0.00
2022-09-13T02:56:14.321Z,0.00
2022-09-13T02:57:14.623Z,0.00
2022-09-13T02:58:13.613Z,0.00
2022-09-13T02:59:13.896Z,0.00
2022-09-13T03:00:15.433Z,0.00
2022-09-13T03:01:13.613Z,0.00
2022-09-13T03:02:14.185Z,0.00
2022-09-13T03:03:14.029Z,0.00
2022-09-13T03:04:13.903Z,0.00
2022-09-13T03:05:12.925Z,0.00
2022-09-13T03:06:14.670Z,0.00
2022-09-13T03:07:14.551Z,0.00
2022-09-13T03:08:13.846Z,0.00
2022-09-13T03:09:14.231Z,0.00
2022-09-13T03:10:14.650Z,0.00
2022-09-13T03:11:13.592Z,0.00
2022-09-13T03:12:15.018Z,0.00
2022-09-13T03:13:14.605Z,0.00
2022-09-13T03:14:15.389Z,0.00
2022-09-13T03:15:13.925Z,0.00
2022-09-13T03:16:15.023Z,0.00
2022-09-13T03:17:13.476Z,0.00
2022-09-13T03:18:16.691Z,0.00
2022-09-13T03:19:14.001Z,0.00
2022-09-13T03:20:13.017Z,0.00
2022-09-13T03:21:13.283Z,0.00
2022-09-13T03:22:13.611Z,0.00
2022-09-13T03:23:13.955Z,0.00
2022-09-13T03:24:13.472Z,0.00
2022-09-13T03:25:14.258Z,0.00
2022-09-13T03:26:13.438Z,0.00
2022-09-13T03:27:14.326Z,0.00
2022-09-13T03:28:14.978Z,0.00
2022-09-13T03:29:13.052Z,0.00
2022-09-13T03:30:13.434Z,0.00
2022-09-13T03:31:14.552Z,0.00
2022-09-13T03:32:13.659Z,0.00
2022-09-13T03:33:15.325Z,0.00
2022-09-13T03:34:13.230Z,0.00
2022-09-13T03:35:13.289Z,0.00
2022-09-13T03:36:13.511Z,0.00
2022-09-13T03:37:14.399Z,0.00
2022-09-13T03:38:13.824Z,0.00
2022-09-13T03:39:15.065Z,0.00
2022-09-13T03:40:15.331Z,0.00
2022-09-13T03:41:13.749Z,0.00
2022-09-13T03:42:13.890Z,0.00
2022-09-13T03:43:13.907Z,0.00
2022-09-13T03:44:13.325Z,0.00
2022-09-13T03:45:13.592Z,0.00
2022-09-13T03:46:13.731Z,0.00
2022-09-13T03:47:14.613Z,0.00
2022-09-13T03:48:13.901Z,0.00
2022-09-13T03:49:13.659Z,0.00
2022-09-13T03:50:15.817Z,0.00
2022-09-13T03:51:13.903Z,0.00
2022-09-13T03:52:14.395Z,0.00
2022-09-13T03:53:13.574Z,0.00
2022-09-13T03:54:15.461Z,0.00
2022-09-13T03:55:13.819Z,0.00
2022-09-13T03:56:13.950Z,0.00
2022-09-13T03:57:12.814Z,0.00
2022-09-13T03:58:15.650Z,0.00
2022-09-13T03:59:13.548Z,0.00
2022-09-13T04:00:13.765Z,0.00
2022-09-13T04:01:15.277Z,0.00
2022-09-13T04:02:13.499Z,0.00
2022-09-13T04:03:13.564Z,0.00
2022-09-13T04:04:13.860Z,0.00
2022-09-13T04:05:14.865Z,0.00
2022-09-13T04:06:14.225Z,0.00
2022-09-13T04:07:13.179Z,0.00
2022-09-13T04:08:13.119Z,0.00
2022-09-13T04:09:13.087Z,0.00
2022-09-13T04:10:13.850Z,0.00
2022-09-13T04:11:13.772Z,0.00
2022-09-13T04:12:14.694Z,0.00
2022-09-13T04:13:14.122Z,0.00
2022-09-13T04:14:13.971Z,0.00
2022-09-13T04:15:13.460Z,0.00
2022-09-13T04:16:13.947Z,0.00
2022-09-13T04:17:13.419Z,0.00
2022-09-13T04:18:14.431Z,0.00
2022-09-13T04:19:15.324Z,0.00
2022-09-13T04:20:15.366Z,0.00
2022-09-13T04:21:14.786Z,0.00
2022-09-13T04:22:13.798Z,0.00
2022-09-13T04:23:13.714Z,0.00
2022-09-13T04:24:13.611Z,0.00
2022-09-13T04:25:15.512Z,0.00
2022-09-13T04:26:13.588Z,0.00
2022-09-13T04:27:13.821Z,0.00
2022-09-13T04:28:14.119Z,0.00
2022-09-13T04:29:14.325Z,0.00
2022-09-13T04:30:14.764Z,0.77
2022-09-13T04:31:14.076Z,0.77
2022-09-13T04:32:13.009Z,0.77
2022-09-13T04:33:13.254Z,0.77
2022-09-13T04:34:13.733Z,0.77
2022-09-13T04:35:13.832Z,1.53
2022-09-13T04:36:15.771Z,1.53
2022-09-13T04:37:14.390Z,1.53
2022-09-13T04:38:13.357Z,1.53
2022-09-13T04:39:13.370Z,1.53
2022-09-13T04:40:13.676Z,2.29
2022-09-13T04:41:13.599Z,3.06
2022-09-13T04:42:14.077Z,3.82
2022-09-13T04:43:13.017Z,4.59
2022-09-13T04:44:13.093Z,6.12
2022-09-13T04:45:13.208Z,8.41
2022-09-13T04:46:13.629Z,11.47
2022-09-13T04:47:13.825Z,15.30
2022-09-13T04:48:15.343Z,18.36
2022-09-13T04:49:13.247Z,22.95
2022-09-13T04:50:13.594Z,27.54
2022-09-13T04:51:15.354Z,33.66
2022-09-13T04:52:13.373Z,36.72
2022-09-13T04:53:15.091Z,42.84
2022-09-13T04:54:16.245Z,45.90
2022-09-13T04:55:13.457Z,48.96
2022-09-13T04:56:14.035Z,48.96
2022-09-13T04:57:13.196Z,55.08
2022-09-13T04:58:14.655Z,55.08
2022-09-13T04:59:13.715Z,61.20
2022-09-13T05:00:13.547Z,67.32
2022-09-13T05:01:13.864Z,73.44
2022-09-13T05:02:13.955Z,85.68
2022-09-13T05:03:12.941Z,97.92
2022-09-13T05:04:13.159Z,122.40
2022-09-13T05:05:13.044Z,146.88
2022-09-13T05:06:14.281Z,183.60
2022-09-13T05:07:13.303Z,220.32
2022-09-13T05:08:13.336Z,244.80
2022-09-13T05:09:13.341Z,269.28
2022-09-13T05:10:19.317Z,293.76
2022-09-13T05:11:13.791Z,293.76
2022-09-13T05:12:13.691Z,293.76
2022-09-13T05:13:16.628Z,269.28
2022-09-13T05:14:15.915Z,269.28
2022-09-13T05:15:13.159Z,269.28
2022-09-13T05:16:13.292Z,293.76
2022-09-13T05:17:13.248Z,342.72
2022-09-13T05:18:13.267Z,367.20
2022-09-13T05:19:13.177Z,391.68
2022-09-13T05:20:13.191Z,440.64
2022-09-13T05:21:13.140Z,489.60
2022-09-13T05:22:13.524Z,538.56
2022-09-13T05:23:13.703Z,538.56
2022-09-13T05:24:14.332Z,489.60
2022-09-13T05:25:13.763Z,489.60
2022-09-13T05:26:13.802Z,489.60
2022-09-13T05:27:15.132Z,440.64
2022-09-13T05:28:13.350Z,440.64
2022-09-13T05:29:13.401Z,440.64
2022-09-13T05:30:13.838Z,391.68
2022-09-13T05:31:13.084Z,440.64
2022-09-13T05:32:13.108Z,489.60
2022-09-13T05:33:13.502Z,538.56
2022-09-13T05:34:14.070Z,587.52
2022-09-13T05:35:13.210Z,587.52
2022-09-13T05:36:13.643Z,587.52
2022-09-13T05:37:14.145Z,587.52
2022-09-13T05:38:13.282Z,636.48
2022-09-13T05:39:29.768Z,636.48
2022-09-13T05:40:13.398Z,685.44
2022-09-13T05:41:13.365Z,734.40
2022-09-13T05:42:13.255Z,783.36
2022-09-13T05:43:13.457Z,881.28
2022-09-13T05:44:18.629Z,979.20
2022-09-13T05:45:15.363Z,1175.04
2022-09-13T05:46:13.327Z,1370.88
2022-09-13T05:47:14.377Z,1370.88
2022-09-13T05:48:13.467Z,1468.80
2022-09-13T05:49:13.626Z,1468.80
2022-09-13T05:50:27.504Z,1566.72
2022-09-13T05:51:13.039Z,1762.56
2022-09-13T05:52:13.236Z,1762.56
2022-09-13T05:53:13.343Z,1958.40
2022-09-13T05:54:13.311Z,1958.40
2022-09-13T05:55:13.645Z,2154.24
2022-09-13T05:56:16.811Z,2154.24
2022-09-13T05:57:14.848Z,2154.24
2022-09-13T05:58:13.981Z,2154.24
2022-09-13T05:59:13.517Z,2154.24
2022-09-13T06:00:14.205Z,2154.24
2022-09-13T06:01:15.577Z,1958.40
2022-09-13T06:02:13.856Z,1958.40
2022-09-13T06:03:13.876Z,1762.56
2022-09-13T06:04:17.106Z,1762.56
2022-09-13T06:05:16.451Z,1762.56
2022-09-13T06:06:13.352Z,1762.56
2022-09-13T06:07:13.288Z,1958.40
2022-09-13T06:08:13.332Z,1958.40
2022-09-13T06:09:13.674Z,2154.24
2022-09-13T06:10:13.613Z,2154.24
2022-09-13T06:11:13.605Z,2154.24
2022-09-13T06:12:13.695Z,2350.08
2022-09-13T06:13:19.658Z,2545.92
2022-09-13T06:14:13.624Z,2545.92
2022-09-13T06:15:13.647Z,2350.08
2022-09-13T06:16:14.044Z,2154.24
2022-09-13T06:17:13.125Z,1762.56
2022-09-13T06:18:13.048Z,1566.72
2022-09-13T06:19:13.205Z,1566.72
2022-09-13T06:20:15.092Z,1566.72
2022-09-13T06:21:13.540Z,1566.72
2022-09-13T06:22:13.503Z,1566.72
2022-09-13T06:23:18.361Z,1566.72
2022-09-13T06:24:13.310Z,1566.72
2022-09-13T06:25:13.325Z,1566.72
2022-09-13T06:26:14.976Z,1566.72
2022-09-13T06:27:13.050Z,1762.56
2022-09-13T06:28:13.238Z,1762.56
2022-09-13T06:29:13.564Z,1958.40
2022-09-13T06:30:15.167Z,2154.24
2022-09-13T06:31:13.166Z,2350.08
2022-09-13T06:32:13.280Z,2545.92
2022-09-13T06:33:14.674Z,2545.92
2022-09-13T06:34:16.314Z,2741.76
2022-09-13T06:35:13.500Z,2741.76
2022-09-13T06:36:14.727Z,2937.60
2022-09-13T06:37:13.927Z,2937.60
2022-09-13T06:38:13.000Z,2937.60
2022-09-13T06:39:13.002Z,2545.92
2022-09-13T06:40:12.870Z,2350.08
2022-09-13T06:41:13.855Z,2350.08
2022-09-13T06:42:13.850Z,2154.24
2022-09-13T06:43:15.410Z,2154.24
2022-09-13T06:44:14.050Z,2154.24
2022-09-13T06:45:13.063Z,2350.08
2022-09-13T06:46:14.618Z,2350.08
2022-09-13T06:47:16.838Z,2545.92
2022-09-13T06:48:18.638Z,2545.92
2022-09-13T06:49:14.953Z,2545.92
2022-09-13T06:50:13.158Z,2350.08
2022-09-13T06:51:13.511Z,2545.92
2022-09-13T06:52:13.779Z,2545.92
2022-09-13T06:53:19.648Z,2741.76
2022-09-13T06:54:13.941Z,2741.76
2022-09-13T06:55:13.742Z,2741.76
2022-09-13T06:56:13.686Z,2545.92
2022-09-13T06:57:13.761Z,2545.92
2022-09-13T06:58:13.775Z,2545.92
2022-09-13T06:59:15.042Z,2545.92
2022-09-13T07:00:14.133Z,2741.76
2022-09-13T07:01:13.227Z,3133.44
2022-09-13T07:02:13.361Z,3525.12
2022-09-13T07:03:13.550Z,3916.80
2022-09-13T07:04:14.900Z,4308.48
2022-09-13T07:05:14.455Z,4308.48
2022-09-13T07:06:16.323Z,4308.48
2022-09-13T07:07:18.203Z,3916.80
2022-09-13T07:08:14.862Z,3916.80
2022-09-13T07:09:15.457Z,3916.80
2022-09-13T07:10:15.022Z,3916.80
2022-09-13T07:11:14.498Z,3916.80
2022-09-13T07:12:17.689Z,4308.48
2022-09-13T07:13:16.649Z,4700.16
2022-09-13T07:14:15.179Z,5483.52
2022-09-13T07:15:16.485Z,5875.20
2022-09-13T07:16:14.097Z,6266.88
2022-09-13T07:17:13.334Z,7050.24
2022-09-13T07:18:14.441Z,7833.60
2022-09-13T07:19:14.917Z,8616.96
2022-09-13T07:20:14.324Z,8616.96
2022-09-13T07:21:14.751Z,9400.32
2022-09-13T07:22:13.567Z,9400.32
2022-09-13T07:23:15.465Z,9400.32
2022-09-13T07:24:15.830Z,10183.68
2022-09-13T07:25:16.357Z,9400.32
2022-09-13T07:26:15.770Z,8616.96
2022-09-13T07:27:13.965Z,7833.60
2022-09-13T07:28:12.859Z,7833.60
2022-09-13T07:29:13.785Z,7833.60
2022-09-13T07:30:13.804Z,7833.60
2022-09-13T07:31:14.951Z,8616.96
2022-09-13T07:32:12.961Z,8616.96
2022-09-13T07:33:12.887Z,8616.96
2022-09-13T07:34:15.482Z,9400.32
2022-09-13T07:35:15.410Z,9400.32
2022-09-13T07:36:14.227Z,10183.68
2022-09-13T07:37:13.155Z,10967.04
2022-09-13T07:38:16.019Z,11750.40
2022-09-13T07:39:20.290Z,10967.04
2022-09-13T07:40:15.959Z,10967.04
2022-09-13T07:41:14.579Z,10183.68
2022-09-13T07:42:14.205Z,10967.04
2022-09-13T07:43:13.252Z,10967.04
2022-09-13T07:44:17.764Z,11750.40
2022-09-13T07:45:14.222Z,11750.40
2022-09-13T07:46:14.382Z,12533.76
2022-09-13T07:47:15.025Z,12533.76
2022-09-13T07:48:14.658Z,12533.76
2022-09-13T07:49:15.420Z,12533.76
2022-09-13T07:50:17.121Z,11750.40
2022-09-13T07:51:13.088Z,11750.40
2022-09-13T07:52:13.377Z,11750.40
2022-09-13T07:53:13.255Z,11750.40
2022-09-13T07:54:16.008Z,11750.40
2022-09-13T07:55:16.231Z,12533.76
2022-09-13T07:56:16.437Z,11750.40
2022-09-13T07:57:17.998Z,11750.40
2022-09-13T07:58:12.969Z,12533.76
2022-09-13T07:59:13.244Z,12533.76
2022-09-13T08:00:18.081Z,12533.76
2022-09-13T08:01:14.747Z,12533.76
2022-09-13T08:02:16.036Z,11750.40
2022-09-13T08:03:12.984Z,10967.04
2022-09-13T08:04:14.766Z,10967.04
2022-09-13T08:05:16.027Z,10183.68
2022-09-13T08:06:12.923Z,10183.68
2022-09-13T08:07:16.121Z,10967.04
2022-09-13T08:08:13.093Z,11750.40
2022-09-13T08:09:15.839Z,10967.04
2022-09-13T08:10:20.507Z,10967.04
2022-09-13T08:11:18.277Z,10183.68
2022-09-13T08:12:15.065Z,10967.04
2022-09-13T08:13:15.528Z,10967.04
2022-09-13T08:14:16.929Z,11750.40
2022-09-13T08:15:14.073Z,11750.40
2022-09-13T08:16:17.399Z,12533.76
2022-09-13T08:17:13.715Z,12533.76
2022-09-13T08:18:17.020Z,11750.40
2022-09-13T08:19:14.926Z,11750.40
2022-09-13T08:20:16.018Z,10967.04
2022-09-13T08:21:18.565Z,11750.40
2022-09-13T08:22:22.686Z,10967.04
2022-09-13T08:23:18.721Z,10967.04
2022-09-13T08:24:18.294Z,10967.04
2022-09-13T08:25:16.847Z,11750.40
2022-09-13T08:26:13.051Z,12533.76
2022-09-13T08:27:14.476Z,12533.76
2022-09-13T08:28:16.861Z,12533.76
2022-09-13T08:29:20.032Z,14100.48
2022-09-13T08:30:14.849Z,14100.48
2022-09-13T08:31:15.433Z,14100.48
2022-09-13T08:32:13.372Z,15667.20
2022-09-13T08:33:15.857Z,14100.48
2022-09-13T08:34:15.726Z,14100.48
2022-09-13T08:35:18.436Z,12533.76
2022-09-13T08:36:18.831Z,12533.76
2022-09-13T08:37:15.485Z,12533.76
2022-09-13T08:38:16.711Z,12533.76
2022-09-13T08:39:15.294Z,14100.48
2022-09-13T08:40:15.356Z,14100.48
2022-09-13T08:41:17.430Z,14100.48
2022-09-13T08:42:17.361Z,15667.20
2022-09-13T08:43:19.106Z,14100.48
2022-09-13T08:44:13.501Z,14100.48
2022-09-13T08:45:19.030Z,12533.76
2022-09-13T08:46:16.396Z,14100.48
2022-09-13T08:47:15.225Z,14100.48
2022-09-13T08:48:15.062Z,14100.48
2022-09-13T08:49:16.491Z,12533.76
2022-09-13T08:50:17.256Z,12533.76
2022-09-13T08:51:14.368Z,14100.48
2022-09-13T08:52:17.149Z,18800.64
2022-09-13T08:53:15.494Z,21934.08
2022-09-13T08:54:15.422Z,20367.36
2022-09-13T08:55:18.397Z,23500.80
2022-09-13T08:56:15.257Z,23500.80
2022-09-13T08:57:17.318Z,23500.80
2022-09-13T08:58:15.458Z,21934.08
2022-09-13T08:59:17.178Z,23500.80
2022-09-13T09:00:17.813Z,21934.08
2022-09-13T09:01:14.457Z,25067.52
2022-09-13T09:02:17.729Z,25067.52
2022-09-13T09:03:13.886Z,23500.80
2022-09-13T09:04:18.115Z,20367.36
2022-09-13T09:05:14.802Z,23500.80
2022-09-13T09:06:14.047Z,23500.80
2022-09-13T09:07:13.057Z,23500.80
2022-09-13T09:08:17.675Z,21934.08
2022-09-13T09:09:14.690Z,23500.80
2022-09-13T09:10:14.765Z,21934.08
2022-09-13T09:11:15.338Z,21934.08
2022-09-13T09:12:13.274Z,21934.08
2022-09-13T09:13:21.543Z,21934.08
2022-09-13T09:14:16.483Z,23500.80
2022-09-13T09:15:14.322Z,25067.52
2022-09-13T09:16:15.869Z,23500.80
2022-09-13T09:17:15.769Z,21934.08
2022-09-13T09:18:17.636Z,23500.80
2022-09-13T09:19:17.011Z,23500.80
2022-09-13T09:20:17.757Z,23500.80
2022-09-13T09:21:19.381Z,20367.36
2022-09-13T09:22:17.598Z,20367.36
2022-09-13T09:23:21.194Z,21934.08
2022-09-13T09:24:17.924Z,25067.52
2022-09-13T09:25:17.345Z,23500.80
2022-09-13T09:26:13.438Z,25067.52
2022-09-13T09:27:15.507Z,25067.52
2022-09-13T09:28:15.458Z,28200.96
2022-09-13T09:29:14.316Z,25067.52
2022-09-13T09:30:14.817Z,28200.96
2022-09-13T09:31:15.820Z,28200.96
2022-09-13T09:32:15.663Z,28200.96
2022-09-13T09:33:13.675Z,25067.52
2022-09-13T09:34:17.905Z,28200.96
2022-09-13T09:35:16.026Z,28200.96
2022-09-13T09:36:16.738Z,28200.96
2022-09-13T09:37:16.914Z,28200.96
2022-09-13T09:38:16.324Z,28200.96
2022-09-13T09:39:18.155Z,28200.96
2022-09-13T09:40:17.914Z,21934.08
2022-09-13T09:41:14.748Z,25067.52
2022-09-13T09:42:17.707Z,28200.96
2022-09-13T09:43:17.750Z,28200.96
2022-09-13T09:44:14.695Z,28200.96
2022-09-13T09:45:17.154Z,28200.96
2022-09-13T09:46:17.149Z,28200.96
2022-09-13T09:47:16.422Z,28200.96
2022-09-13T09:48:19.644Z,31334.40
2022-09-13T09:49:18.938Z,31334.40
2022-09-13T09:50:12.922Z,31334.40
2022-09-13T09:51:16.034Z,34467.84
2022-09-13T09:52:19.033Z,31334.40
2022-09-13T09:53:17.685Z,31334.40
2022-09-13T09:54:17.014Z,28200.96
2022-09-13T09:55:18.498Z,28200.96
2022-09-13T09:56:18.183Z,28200.96
2022-09-13T09:57:14.952Z,28200.96
2022-09-13T09:58:15.096Z,25067.52
2022-09-13T09:59:16.360Z,28200.96
2022-09-13T10:00:17.920Z,31334.40
2022-09-13T10:01:18.409Z,31334.40
2022-09-13T10:02:16.065Z,31334.40
2022-09-13T10:03:16.651Z,34467.84
2022-09-13T10:04:16.839Z,31334.40
2022-09-13T10:05:17.398Z,31334.40
2022-09-13T10:06:19.636Z,31334.40
2022-09-13T10:07:17.170Z,31334.40
2022-09-13T10:08:17.604Z,28200.96
2022-09-13T10:09:18.690Z,28200.96
2022-09-13T10:10:16.270Z,31334.40
2022-09-13T10:11:16.507Z,28200.96
2022-09-13T10:12:16.911Z,28200.96
2022-09-13T10:13:19.380Z,28200.96
2022-09-13T10:14:18.100Z,28200.96
2022-09-13T10:15:17.971Z,31334.40
2022-09-13T10:16:18.609Z,28200.96
2022-09-13T10:17:15.332Z,31334.40
2022-09-13T10:18:40.030Z,34467.84
2022-09-13T10:19:16.584Z,37601.28
2022-09-13T10:20:16.486Z,34467.84
2022-09-13T10:21:16.447Z,37601.28
2022-09-13T10:22:16.890Z,40734.72
2022-09-13T10:23:14.929Z,40734.72
2022-09-13T10:24:15.497Z,40734.72
2022-09-13T10:25:20.740Z,40734.72
2022-09-13T10:26:17.262Z,40734.72
2022-09-13T10:27:16.511Z,40734.72
2022-09-13T10:28:17.609Z,37601.28
2022-09-13T10:29:19.864Z,34467.84
2022-09-13T10:30:17.531Z,37601.28
2022-09-13T10:31:17.522Z,34467.84
2022-09-13T10:32:18.466Z,34467.84
2022-09-13T10:33:17.157Z,34467.84
2022-09-13T10:34:17.346Z,31334.40
2022-09-13T10:35:18.279Z,31334.40
2022-09-13T10:36:41.258Z,31334.40
2022-09-13T10:37:16.773Z,31334.40
2022-09-13T10:38:16.486Z,31334.40
2022-09-13T10:39:18.369Z,31334.40
2022-09-13T10:40:19.500Z,34467.84
2022-09-13T10:41:17.109Z,37601.28
2022-09-13T10:42:19.681Z,34467.84
2022-09-13T10:43:18.326Z,34467.84
2022-09-13T10:44:16.516Z,37601.28
2022-09-13T10:45:20.649Z,37601.28
2022-09-13T10:46:16.054Z,37601.28
2022-09-13T10:47:17.232Z,37601.28
2022-09-13T10:48:18.638Z,40734.72
2022-09-13T10:49:18.467Z,40734.72
2022-09-13T10:50:19.388Z,40734.72
2022-09-13T10:51:17.702Z,40734.72
2022-09-13T10:52:16.410Z,37601.28
2022-09-13T10:53:19.043Z,34467.84
2022-09-13T10:54:53.021Z,31334.40
2022-09-13T10:55:16.188Z,25067.52
2022-09-13T10:56:17.209Z,31334.40
2022-09-13T10:58:17.955Z,31334.40
2022-09-13T10:59:27.419Z,34467.84
2022-09-13T11:00:19.903Z,37601.28
2022-09-13T11:01:17.230Z,34467.84
2022-09-13T11:02:17.408Z,37601.28
2022-09-13T11:03:18.799Z,43868.16
2022-09-13T11:04:18.390Z,47001.60
2022-09-13T11:05:19.040Z,43868.16
2022-09-13T11:06:17.991Z,43868.16
2022-09-13T11:07:17.323Z,40734.72
2022-09-13T11:08:19.404Z,43868.16
2022-09-13T11:10:20.973Z,25067.52
2022-09-13T11:11:17.598Z,31334.40
2022-09-13T11:12:19.149Z,34467.84
2022-09-13T11:13:20.605Z,40734.72
2022-09-13T11:14:19.291Z,31334.40
2022-09-13T11:15:19.791Z,28200.96
2022-09-13T11:16:17.722Z,25067.52
2022-09-13T11:17:18.803Z,28200.96
2022-09-13T11:18:17.818Z,28200.96
2022-09-13T11:19:19.719Z,31334.40
2022-09-13T11:20:20.838Z,34467.84
2022-09-13T11:21:19.300Z,34467.84
2022-09-13T11:22:18.149Z,37601.28
2022-09-13T11:23:19.174Z,40734.72
2022-09-13T11:24:20.548Z,43868.16
2022-09-13T11:25:19.655Z,43868.16
2022-09-13T11:26:19.802Z,47001.60
2022-09-13T11:27:19.610Z,47001.60
2022-09-13T11:28:19.777Z,37601.28
2022-09-13T11:29:19.187Z,34467.84
2022-09-13T11:30:20.227Z,43868.16
2022-09-13T11:31:19.659Z,40734.72
2022-09-13T11:32:18.783Z,34467.84
2022-09-13T11:33:18.470Z,34467.84
2022-09-13T11:34:21.193Z,40734.72
2022-09-13T11:35:20.309Z,37601.28
2022-09-13T11:36:21.206Z,47001.60
2022-09-13T11:37:19.736Z,47001.60
2022-09-13T11:38:22.436Z,47001.60
2022-09-13T11:39:21.720Z,47001.60
2022-09-13T11:40:21.673Z,47001.60
2022-09-13T11:41:20.732Z,47001.60
2022-09-13T11:42:19.812Z,47001.60
2022-09-13T11:43:19.765Z,47001.60
2022-09-13T11:44:21.144Z,47001.60
2022-09-13T11:45:22.077Z,47001.60
2022-09-13T11:46:20.939Z,47001.60
2022-09-13T11:47:19.046Z,47001.60
2022-09-13T11:48:19.764Z,47001.60
2022-09-13T11:49:22.213Z,47001.60
2022-09-13T11:50:20.611Z,47001.60
2022-09-13T11:51:21.149Z,25067.52
2022-09-13T11:52:21.360Z,47001.60
2022-09-13T11:53:19.739Z,43868.16
2022-09-13T11:54:21.796Z,43868.16
2022-09-13T11:55:21.935Z,43868.16
2022-09-13T11:56:21.688Z,23500.80
2022-09-13T11:57:21.085Z,25067.52
2022-09-13T11:58:19.816Z,18800.64
2022-09-13T11:59:21.748Z,43868.16
2022-09-13T12:00:21.786Z,47001.60
2022-09-13T12:01:22.117Z,47001.60
2022-09-13T12:02:20.374Z,47001.60
2022-09-13T12:03:32.042Z,50135.04
2022-09-13T12:04:20.604Z,50135.04
2022-09-13T12:05:23.238Z,47001.60
2022-09-13T12:06:26.303Z,40734.72
2022-09-13T12:07:21.865Z,43868.16
2022-09-13T12:08:27.051Z,43868.16
2022-09-13T12:09:21.457Z,40734.72
2022-09-13T12:10:21.612Z,34467.84
2022-09-13T12:11:21.517Z,31334.40
2022-09-13T12:12:22.393Z,34467.84
2022-09-13T12:13:21.970Z,34467.84
2022-09-13T12:14:20.136Z,31334.40
2022-09-13T12:15:21.018Z,34467.84
2022-09-13T12:16:19.785Z,25067.52
2022-09-13T12:17:21.697Z,23500.80
2022-09-13T12:18:21.342Z,21934.08
2022-09-13T12:19:20.539Z,14100.48
2022-09-13T12:20:20.573Z,14100.48
2022-09-13T12:21:19.743Z,31334.40
2022-09-13T12:22:21.247Z,25067.52
2022-09-13T12:23:20.171Z,25067.52
2022-09-13T12:24:19.653Z,21934.08
2022-09-13T12:25:19.807Z,34467.84
2022-09-13T12:26:19.911Z,37601.28
2022-09-13T12:27:18.984Z,37601.28